createdAt,value
2019-05-01T00:01:16.104Z,6.95
2019-05-01T00:04:01.514Z,6.50
2019-05-01T00:06:35.364Z,6.90
2019-05-01T00:09:05.598Z,6.70
2019-05-01T00:11:34.356Z,7.05
2019-05-01T00:14:04.333Z,7.30
2019-05-01T00:16:33.274Z,6.85
2019-05-01T00:19:02.060Z,6.67
2019-05-01T00:21:30.959Z,7.00
2019-05-01T00:23:59.731Z,7.95
2019-05-01T00:26:28.547Z,8.28
2019-05-01T00:28:57.412Z,8.30
2019-05-01T00:31:26.615Z,8.63
2019-05-01T00:33:55.440Z,8.65
2019-05-01T00:36:24.278Z,8.93
2019-05-01T00:38:53.135Z,8.70
2019-05-01T00:41:21.956Z,8.43
2019-05-01T00:43:50.998Z,8.60
2019-05-01T00:46:19.783Z,8.40
2019-05-01T00:48:48.572Z,8.55
2019-05-01T00:51:17.467Z,8.28
2019-05-01T00:53:46.217Z,8.80
2019-05-01T00:56:16.614Z,8.78
2019-05-01T00:58:55.715Z,9.38
2019-05-01T01:01:32.063Z,8.13
2019-05-01T01:04:00.925Z,8.23
2019-05-01T01:06:29.753Z,8.58
2019-05-01T01:08:58.599Z,9.25
2019-05-01T01:11:27.441Z,9.30
2019-05-01T01:13:56.206Z,9.35
2019-05-01T01:16:25.025Z,9.35
2019-05-01T01:18:53.786Z,9.73
2019-05-01T01:21:22.774Z,8.85
2019-05-01T01:23:51.512Z,9.37
2019-05-01T01:26:21.312Z,8.80
2019-05-01T01:28:50.012Z,9.25
2019-05-01T01:31:18.920Z,9.35
2019-05-01T01:33:47.808Z,9.60
2019-05-01T01:36:16.566Z,10.35
2019-05-01T01:38:45.322Z,9.23
2019-05-01T01:41:14.175Z,10.08
2019-05-01T01:43:50.651Z,11.65
2019-05-01T01:46:23.834Z,10.78
2019-05-01T01:48:52.663Z,11.73
2019-05-01T01:51:21.819Z,11.48
2019-05-01T01:53:52.166Z,12.13
2019-05-01T01:56:21.533Z,10.48
2019-05-01T01:58:50.961Z,11.78
2019-05-01T02:01:33.747Z,11.93
2019-05-01T02:04:04.355Z,12.95
2019-05-01T02:06:33.708Z,11.90
2019-05-01T02:09:02.584Z,14.07
2019-05-01T02:11:31.450Z,16.73
2019-05-01T02:14:00.255Z,21.43
2019-05-01T02:16:29.052Z,18.98
2019-05-01T02:18:57.939Z,20.20
2019-05-01T02:21:26.929Z,19.65
2019-05-01T02:23:55.745Z,19.52
2019-05-01T02:26:26.448Z,19.07
2019-05-01T02:28:59.955Z,17.23
2019-05-01T02:31:30.687Z,16.25
2019-05-01T02:34:03.138Z,15.98
2019-05-01T02:36:33.182Z,17.05
2019-05-01T02:39:02.582Z,15.83
2019-05-01T02:41:34.859Z,16.12
2019-05-01T02:44:12.595Z,15.58
2019-05-01T02:46:44.025Z,15.98
2019-05-01T02:49:36.322Z,14.65
2019-05-01T02:52:06.657Z,15.32
2019-05-01T02:54:37.184Z,14.55
2019-05-01T02:57:14.266Z,14.18
2019-05-01T02:59:45.979Z,14.63
2019-05-01T03:02:16.067Z,13.40
2019-05-01T03:04:45.974Z,14.78
2019-05-01T03:07:15.606Z,14.83
2019-05-01T03:09:44.690Z,13.48
2019-05-01T03:12:15.424Z,15.32
2019-05-01T03:14:46.754Z,14.03
2019-05-01T03:17:36.302Z,14.15
2019-05-01T03:20:14.567Z,13.58
2019-05-01T03:23:01.667Z,13.13
2019-05-01T03:25:30.589Z,14.68
2019-05-01T03:27:59.629Z,15.37
2019-05-01T03:30:28.490Z,14.38
2019-05-01T03:32:57.323Z,15.30
2019-05-01T03:35:26.979Z,15.63
2019-05-01T03:37:55.940Z,14.63
2019-05-01T03:40:24.796Z,14.53
2019-05-01T03:42:53.677Z,14.23
2019-05-01T03:45:23.943Z,14.50
2019-05-01T03:47:53.190Z,14.53
2019-05-01T03:50:22.534Z,14.13
2019-05-01T03:52:51.459Z,14.90
2019-05-01T03:55:20.524Z,14.30
2019-05-01T03:57:49.754Z,13.83
2019-05-01T04:00:23.246Z,12.73
2019-05-01T04:03:09.879Z,13.10
2019-05-01T04:05:38.655Z,12.33
2019-05-01T04:08:07.806Z,12.80
2019-05-01T04:10:36.642Z,12.23
2019-05-01T04:13:05.686Z,11.48
2019-05-01T04:15:35.233Z,11.50
2019-05-01T04:18:06.134Z,11.68
2019-05-01T04:20:35.084Z,10.65
2019-05-01T04:23:04.255Z,11.27
2019-05-01T04:25:33.486Z,11.65
2019-05-01T04:28:04.189Z,11.33
2019-05-01T04:30:34.805Z,10.68
2019-05-01T04:33:08.867Z,10.45
2019-05-01T04:35:48.401Z,12.55
2019-05-01T04:38:17.849Z,9.85
2019-05-01T04:40:49.427Z,10.23
2019-05-01T04:43:18.680Z,9.90
2019-05-01T04:45:50.261Z,8.50
2019-05-01T04:48:19.333Z,9.00
2019-05-01T04:50:48.734Z,8.38
2019-05-01T04:53:18.289Z,7.58
2019-05-01T04:55:47.512Z,7.87
2019-05-01T04:58:16.687Z,7.60
2019-05-01T05:00:46.668Z,7.53
2019-05-01T05:03:17.354Z,7.80
2019-05-01T05:05:46.241Z,7.65
2019-05-01T05:08:15.508Z,7.70
2019-05-01T05:10:45.232Z,7.92
2019-05-01T05:16:04.146Z,8.03
2019-05-01T05:18:33.886Z,7.95
2019-05-01T05:23:31.344Z,7.20
2019-05-01T05:26:00.985Z,7.30
2019-05-01T05:31:01.282Z,7.72
2019-05-01T05:33:41.853Z,7.40
2019-05-01T05:36:14.377Z,7.95
2019-05-01T05:38:46.397Z,8.03
2019-05-01T05:41:15.754Z,7.92
2019-05-01T05:43:44.656Z,7.65
2019-05-01T05:46:13.747Z,7.65
2019-05-01T05:48:43.305Z,8.30
2019-05-01T05:53:59.877Z,8.43
2019-05-01T05:56:41.391Z,8.03
2019-05-01T05:59:14.903Z,8.08
2019-05-01T06:01:50.362Z,10.98
2019-05-01T06:04:39.585Z,11.55
2019-05-01T06:07:11.325Z,11.88
2019-05-01T06:09:44.724Z,11.25
2019-05-01T06:12:21.703Z,11.90
2019-05-01T06:15:02.495Z,12.88
2019-05-01T06:17:38.112Z,14.63
2019-05-01T06:20:25.813Z,13.25
2019-05-01T06:23:11.000Z,13.85
2019-05-01T06:25:49.459Z,12.35
2019-05-01T06:28:19.968Z,12.07
2019-05-01T06:30:49.262Z,11.10
2019-05-01T06:33:19.841Z,10.90
2019-05-01T06:35:48.606Z,11.20
2019-05-01T06:38:17.917Z,10.93
2019-05-01T06:40:53.130Z,11.43
2019-05-01T06:43:45.689Z,10.85
2019-05-01T06:46:17.041Z,9.20
2019-05-01T06:48:58.843Z,9.45
2019-05-01T06:51:35.564Z,8.58
2019-05-01T06:54:11.335Z,10.60
2019-05-01T06:56:41.135Z,9.45
2019-05-01T07:01:38.199Z,8.63
2019-05-01T07:04:07.635Z,13.78
2019-05-01T07:06:37.123Z,7.53
2019-05-01T07:09:11.837Z,6.60
2019-05-01T07:11:42.550Z,6.55
2019-05-01T07:14:16.087Z,6.47
2019-05-01T07:16:42.184Z,6.35
2019-05-01T07:19:11.432Z,9.85
2019-05-01T07:21:40.395Z,6.80
2019-05-01T07:24:09.378Z,6.70
2019-05-01T07:26:38.308Z,6.28
2019-05-01T07:29:09.901Z,6.60
2019-05-01T07:31:39.193Z,6.67
2019-05-01T07:34:16.262Z,5.47
2019-05-01T07:36:40.573Z,5.47
2019-05-01T07:39:10.072Z,5.42
2019-05-01T07:41:40.205Z,5.72
2019-05-01T07:44:13.557Z,4.90
2019-05-01T07:46:54.339Z,6.05
2019-05-01T07:49:24.480Z,6.05
2019-05-01T07:51:53.389Z,7.87
2019-05-01T07:54:23.019Z,7.17
2019-05-01T07:56:52.179Z,10.95
2019-05-01T07:59:22.897Z,6.67
2019-05-01T08:01:59.123Z,6.62
2019-05-01T08:04:35.919Z,8.15
2019-05-01T08:06:58.755Z,6.35
2019-05-01T08:09:27.628Z,6.62
2019-05-01T08:11:56.418Z,7.07
2019-05-01T08:14:25.267Z,5.47
2019-05-01T08:16:55.812Z,21.60
2019-05-01T08:19:42.097Z,8.40
2019-05-01T08:22:12.509Z,6.35
2019-05-01T08:24:41.338Z,10.48
2019-05-01T08:27:15.719Z,8.45
2019-05-01T08:29:52.970Z,11.53
2019-05-01T08:32:39.029Z,6.80
2019-05-01T08:35:08.769Z,7.03
2019-05-01T08:37:37.612Z,20.23
2019-05-01T08:40:07.480Z,18.07
2019-05-01T08:42:42.414Z,12.65
2019-05-01T08:45:08.603Z,6.10
2019-05-01T08:47:56.789Z,7.22
2019-05-01T08:50:25.990Z,5.83
2019-05-01T08:52:54.869Z,7.25
2019-05-01T08:55:23.812Z,7.97
2019-05-01T08:57:52.650Z,9.40
2019-05-01T09:00:21.471Z,5.63
2019-05-01T09:02:50.398Z,6.15
2019-05-01T09:05:28.144Z,8.33
2019-05-01T09:07:51.159Z,7.83
2019-05-01T09:10:21.749Z,7.33
2019-05-01T09:12:52.039Z,9.30
2019-05-01T09:15:21.073Z,5.33
2019-05-01T09:17:51.960Z,6.50
2019-05-01T09:22:51.965Z,7.20
2019-05-01T09:25:22.390Z,5.33
2019-05-01T09:28:04.149Z,5.37
2019-05-01T09:30:37.217Z,8.35
2019-05-01T09:33:06.093Z,5.20
2019-05-01T09:35:34.844Z,9.13
2019-05-01T09:38:03.670Z,6.17
2019-05-01T09:40:32.519Z,6.10
2019-05-01T09:43:01.254Z,4.40
2019-05-01T09:45:30.092Z,6.65
2019-05-01T09:47:58.920Z,6.00
2019-05-01T09:50:30.446Z,5.97
2019-05-01T09:53:11.789Z,7.03
2019-05-01T09:55:51.336Z,6.00
2019-05-01T09:58:20.118Z,5.97
2019-05-01T10:00:52.817Z,6.65
2019-05-01T10:03:20.145Z,7.25
2019-05-01T10:05:48.968Z,7.17
2019-05-01T10:08:17.862Z,6.93
2019-05-01T10:10:46.749Z,6.40
2019-05-01T10:13:17.770Z,6.20
2019-05-01T10:15:46.050Z,6.33
2019-05-01T10:18:15.905Z,6.43
2019-05-01T10:20:44.729Z,6.60
2019-05-01T10:23:14.975Z,7.33
2019-05-01T10:25:48.030Z,6.75
2019-05-01T10:28:32.874Z,6.20
2019-05-01T10:31:06.931Z,7.12
2019-05-01T10:33:40.715Z,6.90
2019-05-01T10:36:28.521Z,6.15
2019-05-01T10:38:57.389Z,7.22
2019-05-01T10:41:26.269Z,6.30
2019-05-01T10:43:55.163Z,5.20
2019-05-01T10:46:23.922Z,5.93
2019-05-01T10:48:52.696Z,5.03
2019-05-01T10:51:21.597Z,4.90
2019-05-01T10:53:50.349Z,4.73
2019-05-01T10:56:19.381Z,4.50
2019-05-01T10:58:48.138Z,4.20
2019-05-01T11:04:00.309Z,5.00
2019-05-01T11:06:29.130Z,5.65
2019-05-01T11:08:57.894Z,5.53
2019-05-01T11:11:27.189Z,5.12
2019-05-01T11:13:56.045Z,6.78
2019-05-01T11:16:26.615Z,6.63
2019-05-01T11:18:55.246Z,6.60
2019-05-01T11:21:24.026Z,5.72
2019-05-01T11:23:52.800Z,5.12
2019-05-01T11:26:21.623Z,6.17
2019-05-01T11:28:50.441Z,7.07
2019-05-01T11:31:26.752Z,5.00
2019-05-01T11:33:57.268Z,6.50
2019-05-01T11:36:37.494Z,6.45
2019-05-01T11:39:11.981Z,6.53
2019-05-01T11:42:00.616Z,6.62
2019-05-01T11:44:31.328Z,6.25
2019-05-01T11:47:00.186Z,6.30
2019-05-01T11:49:28.971Z,6.97
2019-05-01T11:51:57.935Z,10.48
2019-05-01T11:54:26.723Z,7.70
2019-05-01T11:56:55.508Z,6.00
2019-05-01T11:59:24.264Z,7.33
2019-05-01T12:01:53.095Z,8.15
2019-05-01T12:04:21.907Z,6.03
2019-05-01T12:06:51.751Z,8.08
2019-05-01T12:09:20.527Z,7.00
2019-05-01T12:11:50.943Z,7.20
2019-05-01T12:14:19.822Z,8.15
2019-05-01T12:16:55.996Z,8.20
2019-05-01T12:19:33.145Z,6.80
2019-05-01T12:22:02.223Z,6.05
2019-05-01T12:24:30.982Z,8.25
2019-05-01T12:26:59.740Z,10.63
2019-05-01T12:29:28.623Z,9.00
2019-05-01T12:31:57.412Z,6.10
2019-05-01T12:34:26.091Z,7.90
2019-05-01T12:36:56.472Z,5.95
2019-05-01T12:39:25.311Z,7.65
2019-05-01T12:41:55.645Z,10.32
2019-05-01T12:44:24.421Z,7.22
2019-05-01T12:46:54.952Z,6.97
2019-05-01T12:49:23.688Z,9.55
2019-05-01T12:51:54.165Z,14.55
2019-05-01T12:54:47.221Z,6.50
2019-05-01T12:57:17.751Z,6.67
2019-05-01T12:59:46.531Z,6.15
2019-05-01T13:02:15.319Z,8.73
2019-05-01T13:04:44.156Z,5.97
2019-05-01T13:07:12.969Z,7.70
2019-05-01T13:09:42.768Z,6.45
2019-05-01T13:14:39.879Z,12.10
2019-05-01T13:17:08.696Z,7.17
2019-05-01T13:19:37.556Z,14.63
2019-05-01T13:22:06.427Z,6.28
2019-05-01T13:24:36.871Z,6.37
2019-05-01T13:27:13.308Z,7.87
2019-05-01T13:29:59.635Z,10.70
2019-05-01T13:32:42.250Z,7.50
2019-05-01T13:35:11.124Z,5.85
2019-05-01T13:37:40.010Z,5.83
2019-05-01T13:40:10.276Z,9.90
2019-05-01T13:42:39.144Z,5.83
2019-05-01T13:45:09.776Z,6.10
2019-05-01T13:47:38.537Z,5.58
2019-05-01T13:50:07.870Z,6.08
2019-05-01T13:52:36.750Z,6.03
2019-05-01T13:55:06.561Z,5.63
2019-05-01T14:00:09.279Z,5.80
2019-05-01T14:02:38.146Z,5.67
2019-05-01T14:05:09.413Z,6.40
2019-05-01T14:07:40.068Z,5.90
2019-05-01T14:10:09.226Z,5.67
2019-05-01T14:12:38.000Z,5.90
2019-05-01T14:15:06.902Z,6.17
2019-05-01T14:17:35.766Z,6.43
2019-05-01T14:20:06.783Z,6.20
2019-05-01T14:22:46.250Z,6.92
2019-05-01T14:25:15.122Z,7.10
2019-05-01T14:27:43.879Z,6.20
2019-05-01T14:30:13.217Z,6.10
2019-05-01T14:32:41.910Z,6.03
2019-05-01T14:35:18.273Z,6.10
2019-05-01T14:37:47.033Z,5.72
2019-05-01T14:40:16.475Z,6.58
2019-05-01T14:42:45.243Z,6.55
2019-05-01T14:45:14.130Z,7.12
2019-05-01T14:47:42.895Z,6.63
2019-05-01T14:50:12.144Z,5.92
2019-05-01T14:52:41.008Z,6.00
2019-05-01T14:55:09.924Z,6.13
2019-05-01T14:57:38.546Z,6.10
2019-05-01T15:00:08.381Z,6.72
2019-05-01T15:05:06.994Z,6.90
2019-05-01T15:07:43.176Z,6.80
2019-05-01T15:10:06.951Z,7.05
2019-05-01T15:12:36.124Z,6.10
2019-05-01T15:15:10.549Z,6.42
2019-05-01T15:17:41.069Z,6.00
2019-05-01T15:20:09.895Z,6.70
2019-05-01T15:22:40.304Z,7.08
2019-05-01T15:25:09.475Z,6.17
2019-05-01T15:27:38.272Z,6.72
2019-05-01T15:30:10.095Z,6.67
2019-05-01T15:32:38.771Z,6.50
2019-05-01T15:35:07.702Z,6.00
2019-05-01T15:37:36.491Z,6.17
2019-05-01T15:40:09.029Z,7.47
2019-05-01T15:42:39.524Z,6.83
2019-05-01T15:45:09.096Z,7.83
2019-05-01T15:47:37.922Z,5.90
2019-05-01T15:50:08.857Z,6.47
2019-05-01T15:52:37.623Z,6.17
2019-05-01T15:55:09.882Z,6.30
2019-05-01T15:57:40.253Z,6.37
2019-05-01T16:00:12.683Z,6.00
2019-05-01T16:02:41.421Z,5.80
2019-05-01T16:05:10.502Z,6.45
2019-05-01T16:07:39.269Z,6.25
2019-05-01T16:10:10.564Z,6.45
2019-05-01T16:12:46.792Z,6.15
2019-05-01T16:15:17.717Z,6.00
2019-05-01T16:17:46.583Z,6.45
2019-05-01T16:20:16.983Z,5.80
2019-05-01T16:22:45.910Z,5.90
2019-05-01T16:25:14.945Z,6.08
2019-05-01T16:27:43.887Z,5.62
2019-05-01T16:30:14.309Z,5.42
2019-05-01T16:32:43.204Z,5.75
2019-05-01T16:35:12.023Z,6.13
2019-05-01T16:37:40.909Z,5.20
2019-05-01T16:40:29.664Z,5.97
2019-05-01T16:42:59.500Z,5.53
2019-05-01T16:47:56.331Z,5.95
2019-05-01T16:50:25.548Z,5.60
2019-05-01T16:52:54.482Z,6.17
2019-05-01T16:55:23.329Z,5.63
2019-05-01T16:57:52.207Z,5.75
2019-05-01T17:00:24.474Z,6.23
2019-05-01T17:02:57.645Z,6.33
2019-05-01T17:05:31.064Z,5.90
2019-05-01T17:08:10.499Z,6.55
2019-05-01T17:10:46.546Z,5.47
2019-05-01T17:13:15.320Z,5.53
2019-05-01T17:15:45.976Z,5.62
2019-05-01T17:18:15.163Z,5.00
2019-05-01T17:20:43.989Z,5.12
2019-05-01T17:23:12.838Z,4.78
2019-05-01T17:25:42.071Z,4.43
2019-05-01T17:28:10.938Z,4.97
2019-05-01T17:30:41.976Z,5.80
2019-05-01T17:33:19.871Z,5.72
2019-05-01T17:35:43.194Z,5.15
2019-05-01T17:38:12.153Z,5.20
2019-05-01T17:40:40.983Z,5.67
2019-05-01T17:43:13.684Z,5.55
2019-05-01T17:45:40.234Z,5.17
2019-05-01T17:48:09.011Z,6.12
2019-05-01T17:50:37.777Z,6.92
2019-05-01T17:53:06.674Z,7.30
2019-05-01T17:55:35.488Z,6.80
2019-05-01T17:58:04.477Z,7.35
2019-05-01T18:00:37.882Z,8.00
2019-05-01T18:03:11.227Z,8.53
2019-05-01T18:05:50.623Z,10.88
2019-05-01T18:08:19.557Z,7.58
2019-05-01T18:10:48.315Z,8.20
2019-05-01T18:13:17.167Z,8.65
2019-05-01T18:15:47.051Z,7.92
2019-05-01T18:20:45.661Z,8.68
2019-05-01T18:23:18.805Z,8.90
2019-05-01T18:25:51.973Z,9.18
2019-05-01T18:28:29.937Z,8.18
2019-05-01T18:30:58.829Z,7.90
2019-05-01T18:33:28.934Z,8.13
2019-05-01T18:35:57.760Z,6.97
2019-05-01T18:38:34.131Z,6.97
2019-05-01T18:41:10.530Z,6.95
2019-05-01T18:43:39.393Z,7.28
2019-05-01T18:46:09.374Z,6.95
2019-05-01T18:48:38.222Z,6.65
2019-05-01T18:51:07.105Z,7.45
2019-05-01T18:53:35.947Z,6.87
2019-05-01T18:56:05.727Z,7.70
2019-05-01T18:58:35.700Z,7.42
2019-05-01T19:01:09.503Z,7.75
2019-05-01T19:03:37.116Z,6.72
2019-05-01T19:06:06.409Z,6.50
2019-05-01T19:08:35.257Z,6.17
2019-05-01T19:11:12.269Z,6.42
2019-05-01T19:13:36.008Z,7.00
2019-05-01T19:16:08.067Z,6.05
2019-05-01T19:18:35.727Z,6.35
2019-05-01T19:21:05.619Z,5.85
2019-05-01T19:26:06.488Z,5.92
2019-05-01T19:28:33.349Z,6.03
2019-05-01T19:31:02.197Z,5.83
2019-05-01T19:33:32.052Z,5.58
2019-05-01T20:37:12.557Z,5.25
2019-05-01T20:39:43.180Z,5.37
2019-05-01T20:42:11.981Z,5.20
2019-05-01T20:44:41.783Z,5.28
2019-05-01T20:49:41.323Z,5.03
2019-05-01T20:52:08.958Z,5.85
2019-05-01T20:54:37.796Z,5.05
2019-05-01T20:57:08.300Z,5.67
2019-05-01T20:59:39.177Z,5.30
2019-05-01T21:02:08.276Z,5.75
2019-05-01T21:04:39.707Z,4.83
2019-05-01T21:07:15.416Z,5.20
2019-05-01T21:09:47.721Z,4.83
2019-05-01T21:12:17.145Z,5.03
2019-05-01T21:14:49.697Z,4.35
2019-05-01T21:17:16.855Z,4.40
2019-05-01T21:19:45.710Z,4.77
2019-05-01T21:22:14.470Z,4.50
2019-05-01T21:24:44.415Z,4.47
2019-05-01T21:27:13.510Z,4.55
2019-05-01T21:29:44.369Z,5.20
2019-05-01T21:32:13.644Z,7.58
2019-05-01T21:37:12.336Z,7.47
2019-05-01T21:39:41.162Z,6.58
2019-05-01T21:42:13.570Z,7.62
2019-05-01T21:44:40.427Z,5.12
2019-05-01T21:47:09.276Z,8.03
2019-05-01T21:49:38.126Z,4.40
2019-05-01T21:52:08.655Z,5.22
2019-05-01T21:54:37.446Z,8.58
2019-05-01T21:57:06.283Z,5.33
2019-05-01T21:59:35.385Z,7.72
2019-05-01T22:02:05.364Z,5.33
2019-05-01T22:04:36.676Z,8.63
2019-05-01T22:07:06.948Z,5.47
2019-05-01T22:09:36.670Z,8.18
2019-05-01T22:12:08.235Z,4.55
2019-05-01T22:14:43.926Z,8.88
2019-05-01T22:17:27.416Z,5.53
2019-05-01T22:19:53.788Z,4.95
2019-05-01T22:22:24.244Z,4.80
2019-05-01T22:24:57.340Z,5.78
2019-05-01T22:27:33.474Z,5.85
2019-05-01T22:30:05.890Z,4.80
2019-05-01T22:32:35.925Z,4.37
2019-05-01T22:35:08.122Z,4.47
2019-05-01T22:37:36.943Z,4.50
2019-05-01T22:40:09.278Z,4.35
2019-05-01T22:42:39.178Z,4.10
2019-05-01T22:47:36.426Z,3.90
2019-05-01T22:50:09.440Z,4.08
2019-05-01T22:52:39.521Z,4.10
2019-05-01T22:55:08.566Z,3.92
2019-05-01T22:57:37.351Z,4.80
2019-05-01T23:00:07.695Z,4.15
2019-05-01T23:02:40.825Z,4.22
2019-05-01T23:05:10.402Z,4.30
2019-05-01T23:07:39.158Z,4.33
2019-05-01T23:10:09.195Z,4.47
2019-05-01T23:12:37.962Z,4.10
2019-05-01T23:15:09.963Z,3.90
2019-05-01T23:17:46.027Z,3.90
2019-05-01T23:20:16.251Z,3.95
2019-05-01T23:22:45.151Z,4.28
2019-05-01T23:25:15.803Z,4.42
2019-05-01T23:27:44.686Z,4.33
2019-05-01T23:30:16.853Z,4.47
2019-05-01T23:32:45.917Z,4.72
2019-05-01T23:35:14.799Z,5.20
2019-05-01T23:37:43.599Z,4.97
2019-05-01T23:40:15.619Z,4.28
2019-05-01T23:42:52.426Z,5.20
2019-05-01T23:45:16.781Z,5.08
2019-05-01T23:47:45.600Z,5.35
2019-05-01T23:50:14.403Z,5.47
2019-05-01T23:52:43.223Z,5.22
2019-05-01T23:55:12.274Z,5.83
2019-05-01T23:57:41.105Z,6.00
